createdAt,value
2019-05-06T00:02:01.238Z,100157.66
2019-05-06T00:04:31.670Z,100160.00
2019-05-06T00:07:04.270Z,100164.64
2019-05-06T00:09:34.950Z,100157.14
2019-05-06T00:12:07.217Z,100160.61
2019-05-06T00:14:37.654Z,100158.09
2019-05-06T00:17:09.409Z,100157.01
2019-05-06T00:19:39.902Z,100159.03
2019-05-06T00:22:10.677Z,100156.99
2019-05-06T00:24:47.661Z,100161.50
2019-05-06T00:27:27.297Z,100151.95
2019-05-06T00:29:57.785Z,100150.94
2019-05-06T00:32:28.219Z,100154.30
2019-05-06T00:34:58.649Z,100154.26
2019-05-06T00:37:29.132Z,100156.46
2019-05-06T00:40:07.567Z,100158.41
2019-05-06T00:42:54.085Z,100153.83
2019-05-06T00:45:24.466Z,100156.59
2019-05-06T00:47:55.017Z,100155.00
2019-05-06T00:50:25.828Z,100152.23
2019-05-06T00:52:57.469Z,100146.31
2019-05-06T00:55:28.320Z,100149.70
2019-05-06T00:57:59.672Z,100150.14
2019-05-06T01:00:33.853Z,100147.94
2019-05-06T01:03:04.829Z,100149.77
2019-05-06T01:05:35.257Z,100147.91
2019-05-06T01:08:06.224Z,100147.89
2019-05-06T01:10:36.693Z,100145.31
2019-05-06T01:13:29.368Z,100153.07
2019-05-06T01:15:59.860Z,100155.34
2019-05-06T01:18:30.295Z,100149.42
2019-05-06T01:21:14.555Z,100151.78
2019-05-06T01:23:46.323Z,100150.90
2019-05-06T01:26:18.702Z,100147.40
2019-05-06T01:28:49.447Z,100154.81
2019-05-06T01:31:20.273Z,100157.58
2019-05-06T01:33:51.163Z,100154.33
2019-05-06T01:36:22.005Z,100153.00
2019-05-06T01:39:10.597Z,100153.20
2019-05-06T01:42:04.479Z,100154.66
2019-05-06T01:44:35.226Z,100154.95
2019-05-06T01:47:05.754Z,100157.38
2019-05-06T01:49:36.889Z,100154.73
2019-05-06T01:52:08.031Z,100150.91
2019-05-06T01:54:39.273Z,100149.32
2019-05-06T01:57:09.745Z,100152.73
2019-05-06T01:59:40.182Z,100153.26
2019-05-06T02:02:10.622Z,100147.45
2019-05-06T02:04:41.517Z,100149.78
2019-05-06T02:07:11.944Z,100151.04
2019-05-06T02:09:44.598Z,100148.20
2019-05-06T02:12:14.861Z,100144.82
2019-05-06T02:14:45.757Z,100147.80
2019-05-06T02:17:16.189Z,100143.45
2019-05-06T02:19:47.468Z,100151.12
2019-05-06T02:22:26.567Z,100151.80
2019-05-06T02:25:00.993Z,100154.19
2019-05-06T02:27:31.426Z,100154.25
2019-05-06T02:30:31.472Z,100150.55
2019-05-06T02:33:20.831Z,100157.88
2019-05-06T02:35:57.789Z,100155.72
2019-05-06T02:38:39.674Z,100159.46
2019-05-06T02:41:04.250Z,100158.77
2019-05-06T02:43:34.906Z,100159.69
2019-05-06T02:46:05.668Z,100154.71
2019-05-06T02:48:58.626Z,100156.41
2019-05-06T02:51:33.365Z,100151.16
2019-05-06T02:54:03.605Z,100150.09
2019-05-06T02:56:34.045Z,100146.41
2019-05-06T02:59:04.474Z,100148.48
2019-05-06T03:01:35.025Z,100149.91
2019-05-06T03:04:05.482Z,100145.69
2019-05-06T03:06:35.916Z,100147.17
2019-05-06T03:09:08.002Z,100150.67
2019-05-06T03:11:38.426Z,100149.23
2019-05-06T03:14:09.248Z,100141.83
2019-05-06T03:16:39.735Z,100147.47
2019-05-06T03:19:13.298Z,100145.72
2019-05-06T03:22:07.982Z,100148.97
2019-05-06T03:24:46.940Z,100147.30
2019-05-06T03:27:17.823Z,100155.75
2019-05-06T03:29:48.259Z,100157.23
2019-05-06T03:32:25.257Z,100157.25
2019-05-06T03:35:16.232Z,100160.22
2019-05-06T03:37:24.069Z,100163.27
2019-05-06T03:39:54.621Z,100161.59
2019-05-06T03:42:25.705Z,100159.59
2019-05-06T03:45:00.107Z,100162.98
2019-05-06T03:47:45.438Z,100161.30
2019-05-06T03:50:16.044Z,100157.20
2019-05-06T03:52:46.833Z,100162.75
2019-05-06T03:55:17.261Z,100161.33
2019-05-06T03:57:49.259Z,100155.46
2019-05-06T04:00:20.240Z,100160.64
2019-05-06T04:02:53.525Z,100157.98
2019-05-06T04:05:23.785Z,100155.11
2019-05-06T04:07:55.385Z,100155.36
2019-05-06T04:10:26.085Z,100159.94
2019-05-06T04:12:58.213Z,100156.55
2019-05-06T04:15:34.335Z,100162.91
2019-05-06T04:18:08.715Z,100163.27
2019-05-06T04:20:53.425Z,100163.52
2019-05-06T04:23:33.289Z,100158.42
2019-05-06T04:26:24.563Z,100162.89
2019-05-06T04:28:55.099Z,100154.83
2019-05-06T04:31:26.820Z,100163.93
2019-05-06T04:34:10.181Z,100161.05
2019-05-06T04:36:33.622Z,100160.59
2019-05-06T04:39:04.332Z,100159.38
2019-05-06T04:41:35.666Z,100159.83
2019-05-06T04:44:06.107Z,100164.25
2019-05-06T04:46:36.648Z,100163.39
2019-05-06T04:49:10.781Z,100164.64
2019-05-06T04:51:39.593Z,100168.26
2019-05-06T04:54:13.442Z,100167.89
2019-05-06T04:56:43.982Z,100162.13
2019-05-06T04:59:15.580Z,100166.86
2019-05-06T05:01:46.048Z,100172.91
2019-05-06T05:04:28.380Z,100178.60
2019-05-06T05:06:49.576Z,100176.95
2019-05-06T05:09:22.855Z,100168.39
2019-05-06T05:11:56.937Z,100173.73
2019-05-06T05:14:46.997Z,100177.58
2019-05-06T05:17:42.102Z,100177.71
2019-05-06T05:20:12.795Z,100180.14
2019-05-06T05:22:43.789Z,100183.29
2019-05-06T05:25:14.327Z,100182.21
2019-05-06T05:27:45.437Z,100177.17
2019-05-06T05:30:16.249Z,100181.16
2019-05-06T05:32:46.685Z,100181.52
2019-05-06T05:35:17.119Z,100188.39
2019-05-06T05:37:48.481Z,100184.65
2019-05-06T05:40:19.333Z,100184.89
2019-05-06T05:43:03.024Z,100184.89
2019-05-06T05:45:33.447Z,100188.26
2019-05-06T05:48:08.201Z,100193.55
2019-05-06T05:50:42.047Z,100195.98
2019-05-06T05:53:12.817Z,100185.59
2019-05-06T05:55:43.983Z,100186.70
2019-05-06T05:58:15.025Z,100184.28
2019-05-06T06:00:45.505Z,100181.98
2019-05-06T06:03:16.809Z,100178.47
2019-05-06T06:05:47.248Z,100184.98
2019-05-06T06:08:18.073Z,100175.33
2019-05-06T06:10:57.000Z,100184.25
2019-05-06T06:13:27.477Z,100179.78
2019-05-06T06:16:23.402Z,100183.02
2019-05-06T06:19:12.706Z,100182.00
2019-05-06T06:21:47.433Z,100175.98
2019-05-06T06:24:22.667Z,100173.41
2019-05-06T06:26:53.232Z,100174.23
2019-05-06T06:29:23.766Z,100168.69
2019-05-06T06:32:32.608Z,100169.48
2019-05-06T06:35:14.646Z,100180.94
2019-05-06T06:38:05.345Z,100175.49
2019-05-06T06:40:35.881Z,100172.84
2019-05-06T06:43:12.439Z,100171.70
2019-05-06T06:45:43.001Z,100176.88
2019-05-06T06:48:14.201Z,100175.50
2019-05-06T06:50:45.363Z,100176.02
2019-05-06T06:53:15.790Z,100182.15
2019-05-06T06:55:47.949Z,100177.70
2019-05-06T06:58:36.365Z,100187.55
2019-05-06T07:01:34.898Z,100189.09
2019-05-06T07:04:12.967Z,100187.56
2019-05-06T07:06:47.678Z,100188.38
2019-05-06T07:09:18.613Z,100198.74
2019-05-06T07:11:52.475Z,100188.69
2019-05-06T07:14:22.624Z,100185.88
2019-05-06T07:16:53.477Z,100187.66
2019-05-06T07:19:32.635Z,100184.80
2019-05-06T07:22:02.966Z,100184.47
2019-05-06T07:24:34.013Z,100182.25
2019-05-06T07:27:16.033Z,100184.41
2019-05-06T07:29:48.680Z,100178.80
2019-05-06T07:32:20.477Z,100176.58
2019-05-06T07:34:53.069Z,100184.65
2019-05-06T07:37:23.519Z,100182.05
2019-05-06T07:39:53.945Z,100185.54
2019-05-06T07:42:32.259Z,100187.83
2019-05-06T07:45:32.730Z,100190.24
2019-05-06T07:48:05.717Z,100193.20
2019-05-06T07:50:36.149Z,100185.28
2019-05-06T07:53:08.029Z,100188.38
2019-05-06T07:55:42.422Z,100181.79
2019-05-06T07:58:13.791Z,100182.83
2019-05-06T08:00:44.601Z,100181.58
2019-05-06T08:03:15.194Z,100182.34
2019-05-06T08:05:55.250Z,100178.03
2019-05-06T08:08:18.236Z,100176.35
2019-05-06T08:10:48.660Z,100182.19
2019-05-06T08:13:19.501Z,100176.37
2019-05-06T08:15:52.694Z,100177.86
2019-05-06T08:18:23.333Z,100168.67
2019-05-06T08:20:53.765Z,100176.53
2019-05-06T08:23:32.520Z,100180.12
2019-05-06T08:26:12.601Z,100172.20
2019-05-06T08:28:40.471Z,100173.98
2019-05-06T08:31:08.092Z,100171.88
2019-05-06T08:33:39.246Z,100175.31
2019-05-06T08:36:14.917Z,100166.94
2019-05-06T08:38:59.251Z,100167.91
2019-05-06T08:41:29.905Z,100167.91
2019-05-06T08:44:02.672Z,100160.55
2019-05-06T08:46:33.281Z,100164.40
2019-05-06T08:49:03.780Z,100160.65
2019-05-06T08:51:56.370Z,100158.30
2019-05-06T08:54:46.072Z,100156.94
2019-05-06T08:57:16.576Z,100159.86
2019-05-06T08:59:47.379Z,100154.63
2019-05-06T09:02:19.065Z,100156.11
2019-05-06T09:04:51.723Z,100150.72
2019-05-06T09:07:23.750Z,100155.59
2019-05-06T09:09:53.792Z,100149.66
2019-05-06T09:12:24.231Z,100156.46
2019-05-06T09:14:54.668Z,100145.61
2019-05-06T09:17:25.214Z,100157.16
2019-05-06T09:19:55.653Z,100143.84
2019-05-06T09:22:26.494Z,100147.22
2019-05-06T09:24:56.979Z,100148.38
2019-05-06T09:27:52.695Z,100150.48
2019-05-06T09:30:36.770Z,100146.62
2019-05-06T09:33:07.270Z,100143.86
2019-05-06T09:35:37.702Z,100138.45
2019-05-06T09:38:08.536Z,100137.13
2019-05-06T09:40:38.965Z,100130.64
2019-05-06T09:43:09.410Z,100140.57
2019-05-06T09:45:42.529Z,100126.69
2019-05-06T09:48:23.870Z,100128.39
2019-05-06T09:50:54.364Z,100130.44
2019-05-06T09:53:34.107Z,100128.00
2019-05-06T09:56:36.234Z,100126.70
2019-05-06T09:59:07.439Z,100129.77
2019-05-06T10:01:38.174Z,100130.00
2019-05-06T10:04:08.658Z,100133.23
2019-05-06T10:06:39.211Z,100128.09
2019-05-06T10:09:16.020Z,100128.95
2019-05-06T10:11:44.147Z,100130.16
2019-05-06T10:14:14.696Z,100127.84
2019-05-06T10:16:45.231Z,100121.33
2019-05-06T10:19:16.099Z,100127.48
2019-05-06T10:21:46.534Z,100124.15
2019-05-06T10:24:17.375Z,100121.22
2019-05-06T10:26:52.568Z,100128.12
2019-05-06T10:29:37.157Z,100123.42
2019-05-06T10:32:16.634Z,100121.55
2019-05-06T10:34:47.430Z,100123.57
2019-05-06T10:37:33.503Z,100124.01
2019-05-06T10:40:13.345Z,100129.58
2019-05-06T10:42:52.421Z,100132.70
2019-05-06T10:45:32.413Z,100127.55
2019-05-06T10:48:02.591Z,100118.05
2019-05-06T10:50:37.158Z,100112.11
2019-05-06T10:53:18.648Z,100117.16
2019-05-06T10:55:53.671Z,100114.67
2019-05-06T10:58:24.373Z,100109.89
2019-05-06T11:01:09.269Z,100108.78
2019-05-06T11:03:41.559Z,100105.27
2019-05-06T11:06:13.194Z,100105.92
2019-05-06T11:08:43.782Z,100104.70
2019-05-06T11:11:20.058Z,100104.30
2019-05-06T11:13:46.768Z,100107.97
2019-05-06T11:16:18.082Z,100097.25
2019-05-06T11:18:48.572Z,100091.55
2019-05-06T11:21:19.004Z,100094.47
2019-05-06T11:23:49.430Z,100092.60
2019-05-06T11:26:19.912Z,100087.89
2019-05-06T11:28:54.057Z,100086.38
2019-05-06T11:31:33.210Z,100086.73
2019-05-06T11:34:12.553Z,100088.41
2019-05-06T11:36:52.382Z,100084.44
2019-05-06T11:39:23.569Z,100079.97
2019-05-06T11:42:22.589Z,100083.89
2019-05-06T11:44:26.315Z,100081.37
2019-05-06T11:46:56.741Z,100077.02
2019-05-06T11:49:27.179Z,100079.36
2019-05-06T11:51:58.053Z,100080.21
2019-05-06T11:54:28.645Z,100082.06
2019-05-06T11:56:59.721Z,100078.69
2019-05-06T11:59:30.521Z,100082.88
2019-05-06T12:02:02.969Z,100079.34
2019-05-06T12:04:33.393Z,100077.66
2019-05-06T12:07:11.022Z,100079.77
2019-05-06T12:09:36.426Z,100070.56
2019-05-06T12:12:07.276Z,100067.42
2019-05-06T12:14:37.760Z,100059.06
2019-05-06T12:17:08.293Z,100067.88
2019-05-06T12:19:38.727Z,100065.84
2019-05-06T12:22:09.617Z,100065.93
2019-05-06T12:24:40.045Z,100071.65
2019-05-06T12:27:12.611Z,100071.14
2019-05-06T12:29:43.067Z,100065.44
2019-05-06T12:32:23.881Z,100070.80
2019-05-06T12:34:54.529Z,100070.14
2019-05-06T12:37:26.658Z,100071.31
2019-05-06T12:39:59.172Z,100069.12
2019-05-06T12:42:33.909Z,100071.11
2019-05-06T12:45:23.165Z,100068.91
2019-05-06T12:47:57.286Z,100067.91
2019-05-06T12:50:27.714Z,100068.52
2019-05-06T12:52:58.209Z,100073.03
2019-05-06T12:55:29.986Z,100068.20
2019-05-06T12:58:02.792Z,100068.70
2019-05-06T13:00:34.442Z,100073.05
2019-05-06T13:03:04.936Z,100071.55
2019-05-06T13:05:35.733Z,100073.78
2019-05-06T13:08:06.846Z,100068.39
2019-05-06T13:10:37.797Z,100070.11
2019-05-06T13:13:08.393Z,100068.47
2019-05-06T13:15:39.946Z,100068.95
2019-05-06T13:18:10.756Z,100068.13
2019-05-06T13:20:48.222Z,100064.09
2019-05-06T13:23:35.041Z,100065.78
2019-05-06T13:26:04.565Z,100066.63
2019-05-06T13:28:37.857Z,100060.91
2019-05-06T13:31:17.125Z,100058.23
2019-05-06T13:34:03.487Z,100061.25
2019-05-06T13:36:33.934Z,100065.10
2019-05-06T13:39:13.989Z,100062.08
2019-05-06T13:41:38.220Z,100065.78
2019-05-06T13:44:13.123Z,100062.11
2019-05-06T13:46:47.184Z,100067.29
2019-05-06T13:49:35.438Z,100070.97
2019-05-06T13:52:07.465Z,100060.27
2019-05-06T13:54:38.095Z,100063.11
2019-05-06T13:57:08.698Z,100057.38
2019-05-06T13:59:39.185Z,100053.70
2019-05-06T14:02:33.841Z,100058.07
2019-05-06T14:05:03.684Z,100054.05
2019-05-06T14:07:34.829Z,100052.55
2019-05-06T14:10:05.863Z,100055.22
2019-05-06T14:12:36.682Z,100056.07
2019-05-06T14:15:07.782Z,100051.70
2019-05-06T14:17:38.503Z,100050.52
2019-05-06T14:20:09.077Z,100051.86
2019-05-06T14:22:39.518Z,100046.69
2019-05-06T14:25:33.461Z,100053.55
2019-05-06T14:28:12.397Z,100046.64
2019-05-06T14:30:55.394Z,100049.97
2019-05-06T14:33:25.830Z,100040.86
2019-05-06T14:35:56.264Z,100046.50
2019-05-06T14:38:27.095Z,100038.78
2019-05-06T14:41:07.981Z,100036.74
2019-05-06T14:43:38.462Z,100044.88
2019-05-06T14:46:10.173Z,100045.08
2019-05-06T14:48:43.615Z,100043.64
2019-05-06T14:51:14.540Z,100052.03
2019-05-06T14:53:44.975Z,100048.34
2019-05-06T14:56:42.732Z,100047.52
2019-05-06T14:59:13.383Z,100045.83
2019-05-06T15:01:45.586Z,100057.73
2019-05-06T15:04:16.090Z,100059.59
2019-05-06T15:06:47.259Z,100076.86
2019-05-06T15:09:18.040Z,100069.78
2019-05-06T15:11:48.961Z,100076.48
2019-05-06T15:14:19.393Z,100081.70
2019-05-06T15:16:49.837Z,100082.30
2019-05-06T15:19:22.592Z,100083.42
2019-05-06T15:21:53.220Z,100084.56
2019-05-06T15:24:24.521Z,100090.20
2019-05-06T15:26:55.053Z,100088.09
2019-05-06T15:29:25.860Z,100093.39
2019-05-06T15:32:08.110Z,100094.34
2019-05-06T15:34:44.275Z,100086.06
2019-05-06T15:37:20.982Z,100089.95
2019-05-06T15:39:52.235Z,100088.12
2019-05-06T15:42:22.833Z,100092.45
2019-05-06T15:44:53.319Z,100088.23
2019-05-06T15:47:23.762Z,100089.34
2019-05-06T15:49:54.195Z,100096.08
2019-05-06T15:52:24.679Z,100092.69
2019-05-06T15:54:55.118Z,100101.54
2019-05-06T15:57:25.746Z,100097.71
2019-05-06T15:59:56.676Z,100100.28
2019-05-06T16:02:27.105Z,100096.10
2019-05-06T16:04:57.562Z,100099.33
2019-05-06T16:07:28.130Z,100103.73
2019-05-06T16:09:58.574Z,100108.88
2019-05-06T16:12:29.341Z,100104.00
2019-05-06T16:15:02.413Z,100110.21
2019-05-06T16:17:32.807Z,100109.41
2019-05-06T16:20:03.543Z,100106.06
2019-05-06T16:22:34.075Z,100112.22
2019-05-06T16:25:14.723Z,100104.94
2019-05-06T16:27:50.818Z,100097.08
2019-05-06T16:30:24.096Z,100101.19
2019-05-06T16:32:52.800Z,100097.59
2019-05-06T16:35:24.297Z,100096.80
2019-05-06T16:37:54.733Z,100090.75
2019-05-06T16:40:25.527Z,100095.91
2019-05-06T16:42:58.197Z,100087.08
2019-05-06T16:45:28.908Z,100084.32
2019-05-06T16:47:59.773Z,100075.83
2019-05-06T16:50:32.591Z,100065.05
2019-05-06T16:53:02.842Z,100063.30
2019-05-06T16:56:02.109Z,100063.14
2019-05-06T16:58:34.777Z,100063.72
2019-05-06T17:01:06.125Z,100070.78
2019-05-06T17:03:45.641Z,100069.16
2019-05-06T17:06:18.811Z,100064.09
2019-05-06T17:08:52.678Z,100068.95
2019-05-06T17:11:28.222Z,100074.91
2019-05-06T17:13:55.176Z,100075.52
2019-05-06T17:16:25.611Z,100076.02
2019-05-06T17:18:56.918Z,100079.14
2019-05-06T17:21:28.161Z,100077.98
2019-05-06T17:23:59.004Z,100074.03
2019-05-06T17:26:29.448Z,100073.00
2019-05-06T17:29:09.163Z,100073.52
2019-05-06T17:31:58.401Z,100071.72
2019-05-06T17:34:32.448Z,100083.11
2019-05-06T17:37:12.563Z,100077.22
2019-05-06T17:39:43.648Z,100078.05
2019-05-06T17:42:14.205Z,100079.69
2019-05-06T17:44:44.912Z,100089.87
2019-05-06T17:47:34.328Z,100087.98
2019-05-06T17:50:05.767Z,100097.45
2019-05-06T17:52:36.220Z,100098.08
2019-05-06T17:55:07.404Z,100092.77
2019-05-06T17:57:37.898Z,100091.81
2019-05-06T18:00:13.214Z,100084.39
2019-05-06T18:02:44.627Z,100086.66
2019-05-06T18:05:15.657Z,100088.15
2019-05-06T18:07:46.538Z,100078.86
2019-05-06T18:10:17.556Z,100086.88
2019-05-06T18:12:48.803Z,100084.83
2019-05-06T18:15:19.240Z,100086.12
2019-05-06T18:17:52.339Z,100088.70
2019-05-06T18:20:24.474Z,100090.23
2019-05-06T18:22:54.925Z,100101.78
2019-05-06T18:25:26.031Z,100096.99
2019-05-06T18:27:58.437Z,100096.54
2019-05-06T18:30:33.639Z,100097.72
2019-05-06T18:33:02.308Z,100103.41
2019-05-06T18:35:33.070Z,100104.04
2019-05-06T18:38:03.961Z,100106.44
2019-05-06T18:40:34.787Z,100112.04
2019-05-06T18:43:05.311Z,100111.77
2019-05-06T18:45:36.204Z,100113.11
2019-05-06T18:48:07.100Z,100115.83
2019-05-06T18:50:38.166Z,100125.73
2019-05-06T18:53:09.996Z,100124.91
2019-05-06T18:55:42.148Z,100120.23
2019-05-06T18:58:13.148Z,100127.83
2019-05-06T19:00:45.431Z,100124.45
2019-05-06T19:03:16.319Z,100128.87
2019-05-06T19:05:46.786Z,100131.42
2019-05-06T19:08:32.507Z,100130.50
2019-05-06T19:11:03.709Z,100126.33
2019-05-06T19:13:34.453Z,100131.45
2019-05-06T19:16:05.076Z,100136.22
2019-05-06T19:18:38.503Z,100143.27
2019-05-06T19:21:08.536Z,100142.20
2019-05-06T19:23:39.195Z,100142.08
2019-05-06T19:26:12.307Z,100151.47
2019-05-06T19:28:43.641Z,100148.87
2019-05-06T19:31:14.414Z,100156.81
2019-05-06T19:33:45.234Z,100149.22
2019-05-06T19:36:16.069Z,100157.10
2019-05-06T19:38:46.933Z,100159.83
2019-05-06T19:41:17.894Z,100162.64
2019-05-06T19:43:48.531Z,100162.83
2019-05-06T19:46:19.350Z,100162.97
2019-05-06T19:48:52.376Z,100152.32
2019-05-06T19:51:23.438Z,100153.15
2019-05-06T19:53:53.871Z,100150.98
2019-05-06T19:56:24.763Z,100150.84
2019-05-06T19:58:56.127Z,100156.30
2019-05-06T20:01:26.952Z,100147.84
2019-05-06T20:03:57.795Z,100151.48
2019-05-06T20:06:55.174Z,100147.34
2019-05-06T20:09:44.373Z,100152.60
2019-05-06T20:12:30.191Z,100148.80
2019-05-06T20:15:18.686Z,100150.42
2019-05-06T20:17:49.127Z,100143.00
2019-05-06T20:20:19.875Z,100146.68
2019-05-06T20:22:50.364Z,100134.19
2019-05-06T20:25:22.030Z,100131.53
2019-05-06T20:27:53.514Z,100126.56
2019-05-06T20:30:24.459Z,100120.50
2019-05-06T20:32:54.898Z,100126.73
2019-05-06T20:35:25.342Z,100126.34
2019-05-06T20:37:55.834Z,100127.39
2019-05-06T20:40:26.278Z,100119.58
2019-05-06T20:42:56.719Z,100119.19
2019-05-06T20:45:27.643Z,100119.91
2019-05-06T20:47:59.122Z,100122.80
2019-05-06T20:50:32.023Z,100122.20
2019-05-06T20:53:02.534Z,100130.88
2019-05-06T20:55:35.593Z,100126.58
2019-05-06T20:58:05.163Z,100125.86
2019-05-06T21:00:36.320Z,100121.09
2019-05-06T21:03:06.927Z,100122.30
2019-05-06T21:05:38.126Z,100124.59
2019-05-06T21:08:08.630Z,100126.13
2019-05-06T21:10:39.093Z,100131.16
2019-05-06T21:13:09.926Z,100128.48
2019-05-06T21:15:40.408Z,100126.00
2019-05-06T21:18:12.111Z,100125.84
2019-05-06T21:20:43.512Z,100121.20
2019-05-06T21:23:14.262Z,100117.78
2019-05-06T21:25:45.078Z,100122.29
2019-05-06T21:28:15.984Z,100117.27
2019-05-06T21:30:46.421Z,100115.86
2019-05-06T21:33:17.254Z,100117.88
2019-05-06T21:35:48.903Z,100116.83
2019-05-06T21:38:20.095Z,100122.21
2019-05-06T21:40:52.533Z,100121.70
2019-05-06T21:43:22.899Z,100123.46
2019-05-06T21:45:54.096Z,100126.97
2019-05-06T21:48:25.085Z,100125.31
2019-05-06T21:50:55.573Z,100128.20
2019-05-06T21:53:26.286Z,100124.58
2019-05-06T21:55:57.402Z,100129.03
2019-05-06T21:58:28.267Z,100116.66
2019-05-06T22:01:03.751Z,100123.86
2019-05-06T22:03:34.270Z,100125.69
2019-05-06T22:06:05.631Z,100121.05
2019-05-06T22:08:36.491Z,100116.84
2019-05-06T22:11:06.998Z,100117.12
2019-05-06T22:13:37.478Z,100119.17
2019-05-06T22:16:07.911Z,100114.90
2019-05-06T22:18:38.397Z,100114.90
2019-05-06T22:21:33.615Z,100110.11
2019-05-06T22:24:06.174Z,100113.96
2019-05-06T22:26:36.915Z,100111.50
2019-05-06T22:29:07.352Z,100102.42
2019-05-06T22:31:38.408Z,100104.86
2019-05-06T22:34:09.222Z,100105.50
2019-05-06T22:36:40.874Z,100094.30
2019-05-06T22:39:12.055Z,100096.57
2019-05-06T22:41:44.080Z,100098.56
2019-05-06T22:44:17.002Z,100095.89
2019-05-06T22:46:47.199Z,100090.53
2019-05-06T22:49:18.077Z,100084.77
2019-05-06T22:51:48.509Z,100091.64
2019-05-06T22:54:19.355Z,100092.14
2019-05-06T22:56:50.172Z,100096.27
2019-05-06T22:59:24.402Z,100095.77
2019-05-06T23:02:14.998Z,100104.03
2019-05-06T23:04:47.924Z,100100.29
2019-05-06T23:07:18.366Z,100111.72
2019-05-06T23:09:48.852Z,100105.81
2019-05-06T23:12:19.318Z,100105.53
2019-05-06T23:14:49.751Z,100103.65
2019-05-06T23:17:20.602Z,100105.09
2019-05-06T23:19:52.760Z,100106.41
2019-05-06T23:22:23.698Z,100103.31
2019-05-06T23:24:54.503Z,100103.75
2019-05-06T23:27:25.278Z,100101.31
2019-05-06T23:29:56.016Z,100102.17
2019-05-06T23:32:27.070Z,100102.50
2019-05-06T23:34:57.905Z,100104.47
2019-05-06T23:37:26.579Z,100105.45
2019-05-06T23:40:38.626Z,100101.81
2019-05-06T23:43:45.049Z,100104.83
2019-05-06T23:46:52.774Z,100105.74
2019-05-06T23:49:59.090Z,100109.95
2019-05-06T23:53:05.180Z,100113.23
2019-05-06T23:56:13.151Z,100112.89
2019-05-06T23:58:43.876Z,100107.69
